sensor_id;sensor_type;location;lat;lon;timestamp;pressure;altitude;pressure_sealevel;temperature;humidity
50684;BME280;36654;45.042;38.994;2022-11-14T00:02:11;101969.09;;;9.69;82.04
50684;BME280;36654;45.042;38.994;2022-11-14T00:04:36;101957.38;;;9.63;81.98
50684;BME280;36654;45.042;38.994;2022-11-14T00:07:02;101959.25;;;9.65;81.99
50684;BME280;36654;45.042;38.994;2022-11-14T00:09:28;101965.41;;;9.64;81.92
50684;BME280;36654;45.042;38.994;2022-11-14T00:11:54;101973.44;;;9.67;81.95
50684;BME280;36654;45.042;38.994;2022-11-14T00:14:20;101976.16;;;9.69;81.92
50684;BME280;36654;45.042;38.994;2022-11-14T00:16:46;101921.47;;;9.44;81.28
50684;BME280;36654;45.042;38.994;2022-11-14T00:19:12;101953.94;;;9.65;81.32
50684;BME280;36654;45.042;38.994;2022-11-14T00:21:38;101918.19;;;9.51;81.07
50684;BME280;36654;45.042;38.994;2022-11-14T00:24:04;101962.84;;;9.67;81.03
50684;BME280;36654;45.042;38.994;2022-11-14T00:26:30;101955.53;;;9.60;81.00
50684;BME280;36654;45.042;38.994;2022-11-14T00:28:56;101955.44;;;9.57;81.07
50684;BME280;36654;45.042;38.994;2022-11-14T00:31:21;101956.50;;;9.62;81.06
50684;BME280;36654;45.042;38.994;2022-11-14T00:33:47;101954.75;;;9.63;80.81
50684;BME280;36654;45.042;38.994;2022-11-14T00:36:13;101901.66;;;9.33;80.44
50684;BME280;36654;45.042;38.994;2022-11-14T00:38:39;101955.44;;;9.57;80.28
50684;BME280;36654;45.042;38.994;2022-11-14T00:41:05;101907.03;;;9.36;80.01
50684;BME280;36654;45.042;38.994;2022-11-14T00:43:30;101958.19;;;9.60;79.98
50684;BME280;36654;45.042;38.994;2022-11-14T00:45:56;101960.81;;;9.59;79.73
50684;BME280;36654;45.042;38.994;2022-11-14T00:48:22;101955.44;;;9.57;79.47
50684;BME280;36654;45.042;38.994;2022-11-14T00:50:47;101946.69;;;9.60;79.25
50684;BME280;36654;45.042;38.994;2022-11-14T00:53:13;101954.66;;;9.60;79.07
50684;BME280;36654;45.042;38.994;2022-11-14T00:55:40;101941.34;;;9.58;78.86
50684;BME280;36654;45.042;38.994;2022-11-14T00:58:05;101930.56;;;9.52;78.70
50684;BME280;36654;45.042;38.994;2022-11-14T01:00:31;101929.84;;;9.58;78.56
50684;BME280;36654;45.042;38.994;2022-11-14T01:02:57;101931.56;;;9.56;78.60
50684;BME280;36654;45.042;38.994;2022-11-14T01:05:26;101927.06;;;9.53;78.53
50684;BME280;36654;45.042;38.994;2022-11-14T01:07:52;101925.25;;;9.52;78.47
50684;BME280;36654;45.042;38.994;2022-11-14T01:10:18;101952.63;;;9.53;78.05
50684;BME280;36654;45.042;38.994;2022-11-14T01:12:44;101946.44;;;9.52;78.27
50684;BME280;36654;45.042;38.994;2022-11-14T01:15:09;101956.16;;;9.53;78.35
50684;BME280;36654;45.042;38.994;2022-11-14T01:17:35;101945.75;;;9.58;78.21
50684;BME280;36654;45.042;38.994;2022-11-14T01:20:01;101956.25;;;9.55;78.32
50684;BME280;36654;45.042;38.994;2022-11-14T01:22:28;101956.13;;;9.52;78.41
50684;BME280;36654;45.042;38.994;2022-11-14T01:24:54;101965.84;;;9.51;78.42
50684;BME280;36654;45.042;38.994;2022-11-14T01:27:23;101955.91;;;9.45;78.65
50684;BME280;36654;45.042;38.994;2022-11-14T01:29:49;101949.72;;;9.45;78.67
50684;BME280;36654;45.042;38.994;2022-11-14T01:32:15;101944.31;;;9.42;78.88
50684;BME280;36654;45.042;38.994;2022-11-14T01:34:40;101949.63;;;9.42;79.04
50684;BME280;36654;45.042;38.994;2022-11-14T01:37:06;101924.75;;;9.37;78.93
50684;BME280;36654;45.042;38.994;2022-11-14T01:39:32;101929.94;;;9.34;78.97
50684;BME280;36654;45.042;38.994;2022-11-14T01:41:57;101922.91;;;9.36;79.19
50684;BME280;36654;45.042;38.994;2022-11-14T01:47:19;101938.50;;;9.26;79.19
50684;BME280;36654;45.042;38.994;2022-11-14T01:49:52;101924.19;;;9.21;79.03
50684;BME280;36654;45.042;38.994;2022-11-14T01:52:35;101902.59;;;9.09;78.77
50684;BME280;36654;45.042;38.994;2022-11-14T01:55:06;101909.56;;;9.07;78.46
50684;BME280;36654;45.042;38.994;2022-11-14T01:57:35;101919.28;;;9.08;78.59
50684;BME280;36654;45.042;38.994;2022-11-14T02:00:06;101943.00;;;9.05;78.26
50684;BME280;36654;45.042;38.994;2022-11-14T02:02:33;101901.13;;;8.69;78.18
50684;BME280;36654;45.042;38.994;2022-11-14T02:05:06;101971.03;;;9.00;78.24
50684;BME280;36654;45.042;38.994;2022-11-14T02:07:34;101937.03;;;8.87;78.33
50684;BME280;36654;45.042;38.994;2022-11-14T02:10:05;101933.44;;;8.84;78.52
50684;BME280;36654;45.042;38.994;2022-11-14T02:12:32;101952.13;;;8.89;78.41
50684;BME280;36654;45.042;38.994;2022-11-14T02:14:58;101939.50;;;8.82;78.76
50684;BME280;36654;45.042;38.994;2022-11-14T02:17:25;101925.31;;;8.80;78.36
50684;BME280;36654;45.042;38.994;2022-11-14T02:19:52;101940.50;;;8.85;78.45
50684;BME280;36654;45.042;38.994;2022-11-14T02:22:18;101921.69;;;8.76;78.22
50684;BME280;36654;45.042;38.994;2022-11-14T02:24:44;101928.56;;;8.73;78.01
50684;BME280;36654;45.042;38.994;2022-11-14T02:27:11;101960.31;;;8.73;77.87
50684;BME280;36654;45.042;38.994;2022-11-14T02:29:37;101936.22;;;8.65;78.26
50684;BME280;36654;45.042;38.994;2022-11-14T02:32:03;101966.28;;;8.67;78.18
50684;BME280;36654;45.042;38.994;2022-11-14T02:34:29;101936.59;;;8.52;78.24
50684;BME280;36654;45.042;38.994;2022-11-14T02:36:55;101911.28;;;8.36;78.08
50684;BME280;36654;45.042;38.994;2022-11-14T02:39:21;101953.66;;;8.60;77.93
50684;BME280;36654;45.042;38.994;2022-11-14T02:41:46;101966.00;;;8.61;77.69
50684;BME280;36654;45.042;38.994;2022-11-14T02:44:13;101964.13;;;8.57;77.72
50684;BME280;36654;45.042;38.994;2022-11-14T02:46:39;101962.06;;;8.50;77.58
50684;BME280;36654;45.042;38.994;2022-11-14T02:49:05;101950.53;;;8.48;77.39
50684;BME280;36654;45.042;38.994;2022-11-14T02:51:30;101950.41;;;8.45;77.38
50684;BME280;36654;45.042;38.994;2022-11-14T02:53:56;101935.13;;;8.37;77.45
50684;BME280;36654;45.042;38.994;2022-11-14T02:56:22;101915.44;;;8.29;77.54
50684;BME280;36654;45.042;38.994;2022-11-14T02:58:47;101931.63;;;8.38;77.42
50684;BME280;36654;45.042;38.994;2022-11-14T03:01:13;101939.78;;;8.43;76.99
50684;BME280;36654;45.042;38.994;2022-11-14T03:03:38;101930.69;;;8.36;77.19
50684;BME280;36654;45.042;38.994;2022-11-14T03:06:04;101936.91;;;8.38;76.88
50684;BME280;36654;45.042;38.994;2022-11-14T03:08:31;101937.91;;;8.40;76.95
50684;BME280;36654;45.042;38.994;2022-11-14T03:11:03;101936.91;;;8.38;76.52
50684;BME280;36654;45.042;38.994;2022-11-14T03:13:29;101929.09;;;8.40;76.83
50684;BME280;36654;45.042;38.994;2022-11-14T03:15:54;101935.13;;;8.37;76.63
50684;BME280;36654;45.042;38.994;2022-11-14T03:18:20;101930.72;;;8.38;76.79
50684;BME280;36654;45.042;38.994;2022-11-14T03:20:46;101921.69;;;8.31;76.56
50684;BME280;36654;45.042;38.994;2022-11-14T03:23:12;101918.78;;;8.25;76.51
50684;BME280;36654;45.042;38.994;2022-11-14T03:25:37;101937.69;;;8.36;76.89
50684;BME280;36654;45.042;38.994;2022-11-14T03:28:03;101939.50;;;8.37;76.98
50684;BME280;36654;45.042;38.994;2022-11-14T03:30:29;101893.56;;;8.11;77.11
50684;BME280;36654;45.042;38.994;2022-11-14T03:32:56;101949.19;;;8.36;77.06
50684;BME280;36654;45.042;38.994;2022-11-14T03:35:22;101891.78;;;8.10;77.11
50684;BME280;36654;45.042;38.994;2022-11-14T03:37:48;101944.63;;;8.32;76.93
50684;BME280;36654;45.042;38.994;2022-11-14T03:40:14;101947.00;;;8.26;77.20
50684;BME280;36654;45.042;38.994;2022-11-14T03:42:39;101949.78;;;8.29;77.18
50684;BME280;36654;45.042;38.994;2022-11-14T03:45:05;101905.69;;;8.06;77.25
50684;BME280;36654;45.042;38.994;2022-11-14T03:47:31;101929.94;;;8.18;77.34
50684;BME280;36654;45.042;38.994;2022-11-14T03:49:57;101953.31;;;8.30;77.18
50684;BME280;36654;45.042;38.994;2022-11-14T03:52:22;101946.88;;;8.23;77.24
50684;BME280;36654;45.042;38.994;2022-11-14T03:54:50;101897.53;;;7.99;77.26
50684;BME280;36654;45.042;38.994;2022-11-14T03:57:16;101970.13;;;8.32;77.31
50684;BME280;36654;45.042;38.994;2022-11-14T03:59:42;101977.22;;;8.33;77.21
50684;BME280;36654;45.042;38.994;2022-11-14T04:02:07;101956.94;;;8.32;77.47
50684;BME280;36654;45.042;38.994;2022-11-14T04:04:33;101963.00;;;8.29;77.36
50684;BME280;36654;45.042;38.994;2022-11-14T04:06:59;101944.25;;;8.23;77.32
50684;BME280;36654;45.042;38.994;2022-11-14T04:09:24;101929.72;;;8.12;77.34
50684;BME280;36654;45.042;38.994;2022-11-14T04:11:50;101991.72;;;8.42;77.26
50684;BME280;36654;45.042;38.994;2022-11-14T04:14:15;101947.53;;;8.17;77.19
50684;BME280;36654;45.042;38.994;2022-11-14T04:16:41;101988.25;;;8.43;77.35
50684;BME280;36654;45.042;38.994;2022-11-14T04:19:07;101953.06;;;8.24;77.23
50684;BME280;36654;45.042;38.994;2022-11-14T04:21:32;101961.31;;;8.31;77.25
50684;BME280;36654;45.042;38.994;2022-11-14T04:23:58;101983.09;;;8.47;77.15
50684;BME280;36654;45.042;38.994;2022-11-14T04:26:23;101992.00;;;8.49;77.08
50684;BME280;36654;45.042;38.994;2022-11-14T04:28:49;101990.16;;;8.48;77.05
50684;BME280;36654;45.042;38.994;2022-11-14T04:31:15;101989.38;;;8.50;77.19
50684;BME280;36654;45.042;38.994;2022-11-14T04:33:40;101994.00;;;8.56;76.90
50684;BME280;36654;45.042;38.994;2022-11-14T04:36:06;102008.31;;;8.61;77.40
50684;BME280;36654;45.042;38.994;2022-11-14T04:38:32;101975.75;;;8.39;77.32
50684;BME280;36654;45.042;38.994;2022-11-14T04:40:57;101998.59;;;8.60;77.44
50684;BME280;36654;45.042;38.994;2022-11-14T04:43:23;101956.16;;;8.34;77.42
50684;BME280;36654;45.042;38.994;2022-11-14T04:45:49;101962.56;;;8.39;77.13
50684;BME280;36654;45.042;38.994;2022-11-14T04:48:14;102011.13;;;8.66;77.43
50684;BME280;36654;45.042;38.994;2022-11-14T04:50:40;102011.22;;;8.67;77.23
50684;BME280;36654;45.042;38.994;2022-11-14T04:53:06;102021.78;;;8.67;77.38
50684;BME280;36654;45.042;38.994;2022-11-14T04:55:31;102014.06;;;8.73;77.55
50684;BME280;36654;45.042;38.994;2022-11-14T04:57:57;102017.47;;;8.69;77.66
50684;BME280;36654;45.042;38.994;2022-11-14T05:00:24;102018.34;;;8.70;77.50
50684;BME280;36654;45.042;38.994;2022-11-14T05:02:50;102033.66;;;8.78;77.57
50684;BME280;36654;45.042;38.994;2022-11-14T05:05:15;102032.84;;;8.79;77.66
50684;BME280;36654;45.042;38.994;2022-11-14T05:07:41;102034.69;;;8.82;77.67
50684;BME280;36654;45.042;38.994;2022-11-14T05:10:08;102036.50;;;8.83;77.75
50684;BME280;36654;45.042;38.994;2022-11-14T05:12:33;102037.28;;;8.80;77.50
50684;BME280;36654;45.042;38.994;2022-11-14T05:14:59;102043.59;;;8.84;77.58
50684;BME280;36654;45.042;38.994;2022-11-14T05:17:25;102048.22;;;8.90;77.73
50684;BME280;36654;45.042;38.994;2022-11-14T05:19:51;102046.44;;;8.89;77.54
50684;BME280;36654;45.042;38.994;2022-11-14T05:22:16;102037.53;;;8.87;77.43
50684;BME280;36654;45.042;38.994;2022-11-14T05:24:42;102048.44;;;8.96;77.75
50684;BME280;36654;45.042;38.994;2022-11-14T05:27:08;102065.34;;;8.99;77.70
50684;BME280;36654;45.042;38.994;2022-11-14T05:29:33;102056.56;;;9.00;77.63
50684;BME280;36654;45.042;38.994;2022-11-14T05:31:59;102059.31;;;9.03;77.85
50684;BME280;36654;45.042;38.994;2022-11-14T05:34:25;102053.88;;;8.99;77.81
50684;BME280;36654;45.042;38.994;2022-11-14T05:36:51;101972.09;;;8.58;77.88
50684;BME280;36654;45.042;38.994;2022-11-14T05:39:17;102055.13;;;9.09;77.88
50684;BME280;36654;45.042;38.994;2022-11-14T05:41:42;102059.66;;;9.11;78.06
50684;BME280;36654;45.042;38.994;2022-11-14T05:44:08;102062.22;;;9.10;78.19
50684;BME280;36654;45.042;38.994;2022-11-14T05:46:34;102072.22;;;9.18;77.94
50684;BME280;36654;45.042;38.994;2022-11-14T05:48:59;102065.25;;;9.20;78.39
50684;BME280;36654;45.042;38.994;2022-11-14T05:51:25;102066.41;;;9.27;78.33
50684;BME280;36654;45.042;38.994;2022-11-14T05:53:51;102054.75;;;9.22;78.49
50684;BME280;36654;45.042;38.994;2022-11-14T05:56:23;102025.91;;;9.05;78.55
50684;BME280;36654;45.042;38.994;2022-11-14T05:58:51;102064.84;;;9.32;78.39
50684;BME280;36654;45.042;38.994;2022-11-14T06:01:18;102074.63;;;9.35;78.70
50684;BME280;36654;45.042;38.994;2022-11-14T06:03:48;102071.13;;;9.36;78.45
50684;BME280;36654;45.042;38.994;2022-11-14T06:06:17;102074.03;;;9.42;78.66
50684;BME280;36654;45.042;38.994;2022-11-14T06:08:43;102066.06;;;9.42;78.60
50684;BME280;36654;45.042;38.994;2022-11-14T06:11:14;102027.16;;;9.15;78.55
50684;BME280;36654;45.042;38.994;2022-11-14T06:13:43;102073.06;;;9.40;78.40
50684;BME280;36654;45.042;38.994;2022-11-14T06:16:16;102084.97;;;9.51;78.62
50684;BME280;36654;45.042;38.994;2022-11-14T06:18:42;102071.59;;;9.48;78.78
50684;BME280;36654;45.042;38.994;2022-11-14T06:21:19;102061.25;;;9.54;78.37
50684;BME280;36654;45.042;38.994;2022-11-14T06:23:45;102074.06;;;9.67;78.30
50684;BME280;36654;45.042;38.994;2022-11-14T06:26:21;102077.69;;;9.69;77.92
50684;BME280;36654;45.042;38.994;2022-11-14T06:28:48;102043.44;;;9.50;77.92
50684;BME280;36654;45.042;38.994;2022-11-14T06:31:14;102082.34;;;9.77;77.85
50684;BME280;36654;45.042;38.994;2022-11-14T06:33:40;102043.16;;;9.66;77.71
50684;BME280;36654;45.042;38.994;2022-11-14T06:36:07;102072.75;;;9.80;77.60
50684;BME280;36654;45.042;38.994;2022-11-14T06:38:35;102078.00;;;9.79;77.82
50684;BME280;36654;45.042;38.994;2022-11-14T06:43:37;102075.47;;;9.82;77.81
50684;BME280;36654;45.042;38.994;2022-11-14T06:46:03;102069.53;;;9.89;77.63
50684;BME280;36654;45.042;38.994;2022-11-14T06:48:30;102066.13;;;9.93;77.63
50684;BME280;36654;45.042;38.994;2022-11-14T06:50:57;102067.25;;;10.00;77.54
50684;BME280;36654;45.042;38.994;2022-11-14T06:53:24;102072.75;;;10.06;77.43
50684;BME280;36654;45.042;38.994;2022-11-14T06:55:58;102070.09;;;10.06;77.57
50684;BME280;36654;45.042;38.994;2022-11-14T06:58:29;102012.16;;;9.89;77.27
50684;BME280;36654;45.042;38.994;2022-11-14T07:00:55;102046.75;;;10.20;77.22
50684;BME280;36654;45.042;38.994;2022-11-14T07:03:21;102010.81;;;10.02;77.03
50684;BME280;36654;45.042;38.994;2022-11-14T07:05:49;102060.53;;;10.35;76.80
50684;BME280;36654;45.042;38.994;2022-11-14T07:08:15;102075.25;;;10.52;76.53
50684;BME280;36654;45.042;38.994;2022-11-14T07:10:40;102054.03;;;10.52;76.44
50684;BME280;36654;45.042;38.994;2022-11-14T07:13:08;102054.19;;;10.57;76.40
50684;BME280;36654;45.042;38.994;2022-11-14T07:15:35;102059.81;;;10.68;76.27
50684;BME280;36654;45.042;38.994;2022-11-14T07:18:01;102055.31;;;10.65;76.26
50684;BME280;36654;45.042;38.994;2022-11-14T07:20:27;102014.09;;;10.46;76.02
50684;BME280;36654;45.042;38.994;2022-11-14T07:22:52;102068.94;;;10.76;76.15
50684;BME280;36654;45.042;38.994;2022-11-14T07:25:18;102062.03;;;10.81;76.00
50684;BME280;36654;45.042;38.994;2022-11-14T07:27:47;102054.81;;;10.77;75.94
50684;BME280;36654;45.042;38.994;2022-11-14T07:30:13;102068.22;;;10.82;75.77
50684;BME280;36654;45.042;38.994;2022-11-14T07:32:38;101998.91;;;10.42;75.36
50684;BME280;36654;45.042;38.994;2022-11-14T07:35:04;102058.22;;;10.73;75.41
50684;BME280;36654;45.042;38.994;2022-11-14T07:37:30;102057.31;;;10.72;75.39
50684;BME280;36654;45.042;38.994;2022-11-14T07:39:56;102060.78;;;10.70;75.33
50684;BME280;36654;45.042;38.994;2022-11-14T07:42:21;102046.63;;;10.69;75.05
50684;BME280;36654;45.042;38.994;2022-11-14T07:44:47;102049.66;;;10.82;74.89
50684;BME280;36654;45.042;38.994;2022-11-14T07:47:13;102044.28;;;10.80;74.55
50684;BME280;36654;45.042;38.994;2022-11-14T07:49:38;102050.47;;;10.79;74.24
50684;BME280;36654;45.042;38.994;2022-11-14T07:52:04;102060.50;;;10.89;73.69
50684;BME280;36654;45.042;38.994;2022-11-14T07:54:30;102040.81;;;10.81;73.37
50684;BME280;36654;45.042;38.994;2022-11-14T07:56:55;102072.22;;;10.96;73.22
50684;BME280;36654;45.042;38.994;2022-11-14T07:59:21;102063.47;;;10.98;72.67
50684;BME280;36654;45.042;38.994;2022-11-14T08:01:46;102070.31;;;10.92;72.32
50684;BME280;36654;45.042;38.994;2022-11-14T08:04:12;102039.88;;;10.80;72.41
50684;BME280;36654;45.042;38.994;2022-11-14T08:06:38;102040.59;;;10.75;72.75
50684;BME280;36654;45.042;38.994;2022-11-14T08:09:03;102050.50;;;10.80;73.16
50684;BME280;36654;45.042;38.994;2022-11-14T08:11:29;102054.91;;;10.80;73.31
50684;BME280;36654;45.042;38.994;2022-11-14T08:14:12;102048.47;;;10.72;73.43
50684;BME280;36654;45.042;38.994;2022-11-14T08:16:38;102060.13;;;10.77;73.34
50684;BME280;36654;45.042;38.994;2022-11-14T08:19:04;102060.13;;;10.77;73.39
50684;BME280;36654;45.042;38.994;2022-11-14T08:21:30;102061.16;;;10.82;73.44
50684;BME280;36654;45.042;38.994;2022-11-14T08:23:55;102000.91;;;10.49;73.66
50684;BME280;36654;45.042;38.994;2022-11-14T08:26:21;102058.59;;;10.85;73.71
50684;BME280;36654;45.042;38.994;2022-11-14T08:28:47;102047.91;;;10.82;73.75
50684;BME280;36654;45.042;38.994;2022-11-14T08:31:12;102052.50;;;10.88;73.17
50684;BME280;36654;45.042;38.994;2022-11-14T08:33:38;102048.94;;;10.87;72.92
50684;BME280;36654;45.042;38.994;2022-11-14T08:36:06;102049.00;;;10.89;72.56
50684;BME280;36654;45.042;38.994;2022-11-14T08:38:33;102053.50;;;10.91;72.11
50684;BME280;36654;45.042;38.994;2022-11-14T08:40:59;102044.69;;;10.92;72.08
50684;BME280;36654;45.042;38.994;2022-11-14T08:43:25;102039.28;;;10.89;72.10
50684;BME280;36654;45.042;38.994;2022-11-14T08:45:51;102014.38;;;10.84;72.14
50684;BME280;36654;45.042;38.994;2022-11-14T08:48:17;102039.44;;;11.24;71.80
50684;BME280;36654;45.042;38.994;2022-11-14T08:50:43;102031.03;;;11.39;71.15
50684;BME280;36654;45.042;38.994;2022-11-14T08:53:08;102051.19;;;11.64;69.95
50684;BME280;36654;45.042;38.994;2022-11-14T08:55:34;102020.50;;;11.75;69.26
50684;BME280;36654;45.042;38.994;2022-11-14T08:57:59;102025.53;;;11.98;68.50
50684;BME280;36654;45.042;38.994;2022-11-14T09:00:25;102020.44;;;12.05;67.57
50684;BME280;36654;45.042;38.994;2022-11-14T09:02:51;102036.84;;;12.24;66.81
50684;BME280;36654;45.042;38.994;2022-11-14T09:05:16;102009.31;;;12.22;65.89
50684;BME280;36654;45.042;38.994;2022-11-14T09:07:42;102021.03;;;12.28;65.65
50684;BME280;36654;45.042;38.994;2022-11-14T09:10:08;102024.75;;;12.37;65.45
50684;BME280;36654;45.042;38.994;2022-11-14T09:12:34;102021.03;;;12.30;65.10
50684;BME280;36654;45.042;38.994;2022-11-14T09:15:00;102012.88;;;12.22;65.29
50684;BME280;36654;45.042;38.994;2022-11-14T09:17:26;102023.22;;;12.10;64.51
50684;BME280;36654;45.042;38.994;2022-11-14T09:19:51;102010.34;;;11.91;64.09
50684;BME280;36654;45.042;38.994;2022-11-14T09:22:18;101995.16;;;11.55;64.68
50684;BME280;36654;45.042;38.994;2022-11-14T09:24:44;102011.63;;;11.73;65.53
50684;BME280;36654;45.042;38.994;2022-11-14T09:27:12;102022.94;;;11.68;66.28
50684;BME280;36654;45.042;38.994;2022-11-14T09:29:38;102016.69;;;11.65;66.57
50684;BME280;36654;45.042;38.994;2022-11-14T09:32:04;102019.25;;;11.61;66.26
50684;BME280;36654;45.042;38.994;2022-11-14T09:34:29;102004.06;;;11.57;66.43
50684;BME280;36654;45.042;38.994;2022-11-14T09:36:55;101997.81;;;11.55;66.33
50684;BME280;36654;45.042;38.994;2022-11-14T09:39:21;102001.81;;;11.71;66.79
50684;BME280;36654;45.042;38.994;2022-11-14T09:44:56;102001.41;;;11.89;66.22
50684;BME280;36654;45.042;38.994;2022-11-14T09:47:29;101996.31;;;11.98;65.84
50684;BME280;36654;45.042;38.994;2022-11-14T09:50:09;101995.81;;;12.13;65.54
50684;BME280;36654;45.042;38.994;2022-11-14T09:52:39;101951.47;;;12.12;65.06
50684;BME280;36654;45.042;38.994;2022-11-14T09:55:22;101936.19;;;12.03;64.43
50684;BME280;36654;45.042;38.994;2022-11-14T09:57:48;101978.72;;;12.39;63.85
50684;BME280;36654;45.042;38.994;2022-11-14T10:00:19;101989.31;;;12.38;63.53
50684;BME280;36654;45.042;38.994;2022-11-14T10:09:05;101961.06;;;12.43;61.20
50684;BME280;36654;45.042;38.994;2022-11-14T10:11:38;101971.97;;;12.54;60.14
50684;BME280;36654;45.042;38.994;2022-11-14T10:14:20;101971.81;;;12.46;59.99
50684;BME280;36654;45.042;38.994;2022-11-14T10:17:09;101972.44;;;12.36;60.61
50684;BME280;36654;45.042;38.994;2022-11-14T10:19:52;101951.94;;;11.94;62.96
50684;BME280;36654;45.042;38.994;2022-11-14T10:37:23;101961.88;;;12.02;62.95
50684;BME280;36654;45.042;38.994;2022-11-14T10:39:54;101840.28;;;11.21;62.30
50684;BME280;36654;45.042;38.994;2022-11-14T10:42:31;101969.91;;;12.04;61.67
50684;BME280;36654;45.042;38.994;2022-11-14T10:45:22;101951.78;;;11.87;59.81
50684;BME280;36654;45.042;38.994;2022-11-14T10:50:50;101916.25;;;11.85;59.63
50684;BME280;36654;45.042;38.994;2022-11-14T10:56:14;101953.84;;;12.36;59.06
50684;BME280;36654;45.042;38.994;2022-11-14T10:58:43;101956.69;;;12.45;57.75
50684;BME280;36654;45.042;38.994;2022-11-14T11:01:52;101944.50;;;12.53;57.58
50684;BME280;36654;45.042;38.994;2022-11-14T11:04:23;101946.38;;;12.60;57.96
50684;BME280;36654;45.042;38.994;2022-11-14T11:06:55;101949.88;;;12.56;58.01
50684;BME280;36654;45.042;38.994;2022-11-14T11:09:26;101948.72;;;12.45;57.67
50684;BME280;36654;45.042;38.994;2022-11-14T11:12:17;101945.03;;;12.38;57.65
50684;BME280;36654;45.042;38.994;2022-11-14T11:14:44;101949.31;;;12.32;58.16
50684;BME280;36654;45.042;38.994;2022-11-14T11:19:37;101941.69;;;12.09;59.13
50684;BME280;36654;45.042;38.994;2022-11-14T11:22:03;101941.69;;;12.09;59.25
50684;BME280;36654;45.042;38.994;2022-11-14T11:24:35;101945.41;;;12.17;59.07
50684;BME280;36654;45.042;38.994;2022-11-14T11:27:26;101941.16;;;12.24;59.31
50684;BME280;36654;45.042;38.994;2022-11-14T11:32:27;101941.31;;;12.32;57.53
50684;BME280;36654;45.042;38.994;2022-11-14T11:34:54;101926.50;;;12.43;56.88
50684;BME280;36654;45.042;38.994;2022-11-14T11:37:25;101930.97;;;12.45;56.59
50684;BME280;36654;45.042;38.994;2022-11-14T11:39:54;101923.22;;;12.53;56.81
50684;BME280;36654;45.042;38.994;2022-11-14T11:42:37;101889.19;;;12.40;56.25
50684;BME280;36654;45.042;38.994;2022-11-14T11:45:11;101923.44;;;12.65;56.19
50684;BME280;36654;45.042;38.994;2022-11-14T11:47:49;101925.25;;;12.66;55.93
50684;BME280;36654;45.042;38.994;2022-11-14T11:50:19;101930.25;;;12.51;56.42
50684;BME280;36654;45.042;38.994;2022-11-14T11:55:23;101920.72;;;12.21;57.09
50684;BME280;36654;45.042;38.994;2022-11-14T11:58:04;101928.75;;;12.24;57.22
50684;BME280;36654;45.042;38.994;2022-11-14T12:00:31;101919.88;;;12.24;57.33
50684;BME280;36654;45.042;38.994;2022-11-14T12:02:57;101923.38;;;12.23;57.16
50684;BME280;36654;45.042;38.994;2022-11-14T12:08:35;101940.44;;;12.33;57.12
50684;BME280;36654;45.042;38.994;2022-11-14T12:11:10;101928.09;;;12.35;56.38
50684;BME280;36654;45.042;38.994;2022-11-14T12:17:00;101933.75;;;12.50;56.43
50684;BME280;36654;45.042;38.994;2022-11-14T12:22:26;101932.66;;;12.40;56.02
50684;BME280;36654;45.042;38.994;2022-11-14T12:25:17;101932.34;;;12.26;56.66
50684;BME280;36654;45.042;38.994;2022-11-14T12:28:13;101938.19;;;12.12;56.50
50684;BME280;36654;45.042;38.994;2022-11-14T12:30:47;101950.25;;;11.97;56.34
50684;BME280;36654;45.042;38.994;2022-11-14T12:33:31;101949.13;;;11.87;56.78
50684;BME280;36654;45.042;38.994;2022-11-14T12:36:01;101937.38;;;11.79;57.37
50684;BME280;36654;45.042;38.994;2022-11-14T12:38:33;101931.09;;;11.76;57.21
50684;BME280;36654;45.042;38.994;2022-11-14T12:41:05;101924.00;;;11.76;57.27
50684;BME280;36654;45.042;38.994;2022-11-14T12:43:41;101936.69;;;11.86;57.42
50684;BME280;36654;45.042;38.994;2022-11-14T12:46:08;101926.88;;;11.85;57.47
50684;BME280;36654;45.042;38.994;2022-11-14T12:48:45;101934.09;;;11.90;57.16
50684;BME280;36654;45.042;38.994;2022-11-14T12:51:47;101904.34;;;11.70;57.17
50684;BME280;36654;45.042;38.994;2022-11-14T12:54:43;101937.50;;;11.85;57.18
50684;BME280;36654;45.042;38.994;2022-11-14T12:57:15;101929.28;;;11.75;57.42
50684;BME280;36654;45.042;38.994;2022-11-14T13:00:07;101939.00;;;11.74;57.33
50684;BME280;36654;45.042;38.994;2022-11-14T13:02:52;101942.63;;;11.76;57.53
50684;BME280;36654;45.042;38.994;2022-11-14T13:08:52;101893.59;;;11.30;57.99
50684;BME280;36654;45.042;38.994;2022-11-14T13:14:22;101934.75;;;11.48;58.16
50684;BME280;36654;45.042;38.994;2022-11-14T13:19:56;101932.72;;;11.37;58.33
50684;BME280;36654;45.042;38.994;2022-11-14T13:22:42;101928.03;;;11.27;59.13
50684;BME280;36654;45.042;38.994;2022-11-14T13:25:16;101955.53;;;11.29;59.32
50684;BME280;36654;45.042;38.994;2022-11-14T13:27:43;101955.38;;;11.25;59.81
50684;BME280;36654;45.042;38.994;2022-11-14T13:30:08;101951.56;;;11.15;59.95
50684;BME280;36654;45.042;38.994;2022-11-14T13:40:33;101957.41;;;11.01;60.80
50684;BME280;36654;45.042;38.994;2022-11-14T13:46:09;101953.63;;;10.93;61.22
50684;BME280;36654;45.042;38.994;2022-11-14T13:51:42;101939.78;;;10.73;61.69
50684;BME280;36654;45.042;38.994;2022-11-14T13:54:10;101943.25;;;10.71;61.66
50684;BME280;36654;45.042;38.994;2022-11-14T13:56:51;101951.38;;;10.77;61.75
50684;BME280;36654;45.042;38.994;2022-11-14T14:10:02;101953.47;;;10.58;62.40
50684;BME280;36654;45.042;38.994;2022-11-14T14:18:10;101947.69;;;10.43;62.60
50684;BME280;36654;45.042;38.994;2022-11-14T14:21:12;101965.56;;;10.49;62.69
50684;BME280;36654;45.042;38.994;2022-11-14T14:26:38;101970.63;;;10.41;62.96
50684;BME280;36654;45.042;38.994;2022-11-14T14:31:40;101967.81;;;10.36;63.06